sensor_id;sensor_type;location;lat;lon;timestamp;temperature;humidity
8850;DHT22;5638;50.860;4.698;2022-11-24T00:01:09;10.50;99.90
8850;DHT22;5638;50.860;4.698;2022-11-24T00:03:37;10.50;99.90
8850;DHT22;5638;50.860;4.698;2022-11-24T00:06:05;10.50;99.90
8850;DHT22;5638;50.860;4.698;2022-11-24T00:08:36;10.50;99.90
8850;DHT22;5638;50.860;4.698;2022-11-24T00:11:10;10.50;99.90
8850;DHT22;5638;50.860;4.698;2022-11-24T00:13:38;10.50;99.90
8850;DHT22;5638;50.860;4.698;2022-11-24T00:16:12;10.60;99.90
8850;DHT22;5638;50.860;4.698;2022-11-24T00:18:42;10.60;99.90
8850;DHT22;5638;50.860;4.698;2022-11-24T00:21:10;10.60;99.90
8850;DHT22;5638;50.860;4.698;2022-11-24T00:23:36;10.60;99.90
8850;DHT22;5638;50.860;4.698;2022-11-24T00:26:12;10.60;99.90
8850;DHT22;5638;50.860;4.698;2022-11-24T00:28:41;10.70;99.90
8850;DHT22;5638;50.860;4.698;2022-11-24T00:31:32;10.60;99.90
8850;DHT22;5638;50.860;4.698;2022-11-24T00:34:02;10.70;99.90
8850;DHT22;5638;50.860;4.698;2022-11-24T00:36:31;10.60;99.90
8850;DHT22;5638;50.860;4.698;2022-11-24T00:39:01;10.70;99.90
8850;DHT22;5638;50.860;4.698;2022-11-24T00:41:29;10.80;99.90
8850;DHT22;5638;50.860;4.698;2022-11-24T00:43:56;10.70;99.90
8850;DHT22;5638;50.860;4.698;2022-11-24T00:46:23;10.80;99.90
8850;DHT22;5638;50.860;4.698;2022-11-24T00:48:50;10.80;99.90
8850;DHT22;5638;50.860;4.698;2022-11-24T00:51:17;10.80;99.90
8850;DHT22;5638;50.860;4.698;2022-11-24T00:53:44;10.80;99.90
8850;DHT22;5638;50.860;4.698;2022-11-24T00:56:10;10.90;99.90
8850;DHT22;5638;50.860;4.698;2022-11-24T00:58:37;11.00;99.90
8850;DHT22;5638;50.860;4.698;2022-11-24T01:01:13;10.80;99.90
8850;DHT22;5638;50.860;4.698;2022-11-24T01:03:42;10.80;99.90
8850;DHT22;5638;50.860;4.698;2022-11-24T01:06:14;10.70;99.90
8850;DHT22;5638;50.860;4.698;2022-11-24T01:08:42;10.70;99.90
8850;DHT22;5638;50.860;4.698;2022-11-24T01:11:18;10.70;99.90
8850;DHT22;5638;50.860;4.698;2022-11-24T01:13:46;10.70;99.90
8850;DHT22;5638;50.860;4.698;2022-11-24T01:16:26;10.70;99.90
8850;DHT22;5638;50.860;4.698;2022-11-24T01:18:54;10.70;99.90
8850;DHT22;5638;50.860;4.698;2022-11-24T01:21:21;10.70;99.90
8850;DHT22;5638;50.860;4.698;2022-11-24T01:23:48;10.70;99.90
8850;DHT22;5638;50.860;4.698;2022-11-24T01:26:18;10.60;99.90
8850;DHT22;5638;50.860;4.698;2022-11-24T01:28:46;10.70;99.90
8850;DHT22;5638;50.860;4.698;2022-11-24T01:31:16;10.70;99.90
8850;DHT22;5638;50.860;4.698;2022-11-24T01:33:42;10.80;99.90
8850;DHT22;5638;50.860;4.698;2022-11-24T01:36:08;10.70;99.90
8850;DHT22;5638;50.860;4.698;2022-11-24T01:38:34;10.80;99.90
8850;DHT22;5638;50.860;4.698;2022-11-24T01:41:06;10.70;99.90
8850;DHT22;5638;50.860;4.698;2022-11-24T01:43:36;10.80;99.90
8850;DHT22;5638;50.860;4.698;2022-11-24T01:46:21;10.80;99.90
8850;DHT22;5638;50.860;4.698;2022-11-24T01:49:11;10.90;99.90
8850;DHT22;5638;50.860;4.698;2022-11-24T01:51:49;11.00;99.90
8850;DHT22;5638;50.860;4.698;2022-11-24T01:54:26;11.00;99.90
8850;DHT22;5638;50.860;4.698;2022-11-24T01:56:59;11.00;99.90
8850;DHT22;5638;50.860;4.698;2022-11-24T01:59:34;10.90;99.90
8850;DHT22;5638;50.860;4.698;2022-11-24T02:02:01;10.90;99.90
8850;DHT22;5638;50.860;4.698;2022-11-24T02:04:31;10.90;99.90
8850;DHT22;5638;50.860;4.698;2022-11-24T02:06:59;10.90;99.90
8850;DHT22;5638;50.860;4.698;2022-11-24T02:09:33;10.90;99.90
8850;DHT22;5638;50.860;4.698;2022-11-24T02:12:05;10.90;99.90
8850;DHT22;5638;50.860;4.698;2022-11-24T02:14:35;10.90;99.90
8850;DHT22;5638;50.860;4.698;2022-11-24T02:17:02;11.00;99.90
8850;DHT22;5638;50.860;4.698;2022-11-24T02:22:02;10.90;99.90
8850;DHT22;5638;50.860;4.698;2022-11-24T02:24:53;10.80;99.90
8850;DHT22;5638;50.860;4.698;2022-11-24T02:27:36;10.80;99.90
8850;DHT22;5638;50.860;4.698;2022-11-24T02:30:03;10.90;99.90
8850;DHT22;5638;50.860;4.698;2022-11-24T02:32:30;10.90;99.90
8850;DHT22;5638;50.860;4.698;2022-11-24T02:35:03;10.90;99.90
8850;DHT22;5638;50.860;4.698;2022-11-24T02:37:31;10.80;99.90
8850;DHT22;5638;50.860;4.698;2022-11-24T02:39:56;10.90;99.90
8850;DHT22;5638;50.860;4.698;2022-11-24T02:42:23;10.80;99.90
8850;DHT22;5638;50.860;4.698;2022-11-24T02:44:54;10.90;99.90
8850;DHT22;5638;50.860;4.698;2022-11-24T02:47:23;10.90;99.90
8850;DHT22;5638;50.860;4.698;2022-11-24T02:49:49;10.80;99.90
8850;DHT22;5638;50.860;4.698;2022-11-24T02:52:15;10.90;99.90
8850;DHT22;5638;50.860;4.698;2022-11-24T02:54:41;10.90;99.90
8850;DHT22;5638;50.860;4.698;2022-11-24T02:57:07;11.00;99.90
8850;DHT22;5638;50.860;4.698;2022-11-24T02:59:33;10.90;99.90
8850;DHT22;5638;50.860;4.698;2022-11-24T03:01:59;10.90;99.90
8850;DHT22;5638;50.860;4.698;2022-11-24T03:04:24;10.90;99.90
8850;DHT22;5638;50.860;4.698;2022-11-24T03:06:50;11.00;99.90
8850;DHT22;5638;50.860;4.698;2022-11-24T03:09:16;11.00;99.90
8850;DHT22;5638;50.860;4.698;2022-11-24T03:11:42;11.00;99.90
8850;DHT22;5638;50.860;4.698;2022-11-24T03:14:08;11.10;99.90
8850;DHT22;5638;50.860;4.698;2022-11-24T03:16:34;11.10;99.90
8850;DHT22;5638;50.860;4.698;2022-11-24T03:19:00;11.10;99.90
8850;DHT22;5638;50.860;4.698;2022-11-24T03:21:26;11.10;99.90
8850;DHT22;5638;50.860;4.698;2022-11-24T03:23:53;11.10;99.90
8850;DHT22;5638;50.860;4.698;2022-11-24T03:26:20;11.10;99.90
8850;DHT22;5638;50.860;4.698;2022-11-24T03:28:47;11.10;99.90
8850;DHT22;5638;50.860;4.698;2022-11-24T03:31:13;11.10;99.90
8850;DHT22;5638;50.860;4.698;2022-11-24T03:33:39;11.10;99.90
8850;DHT22;5638;50.860;4.698;2022-11-24T03:36:06;11.10;99.90
8850;DHT22;5638;50.860;4.698;2022-11-24T03:38:34;11.10;99.90
8850;DHT22;5638;50.860;4.698;2022-11-24T03:41:00;11.00;99.90
8850;DHT22;5638;50.860;4.698;2022-11-24T03:43:26;11.10;99.90
8850;DHT22;5638;50.860;4.698;2022-11-24T03:45:52;11.00;99.90
8850;DHT22;5638;50.860;4.698;2022-11-24T03:48:18;11.00;99.90
8850;DHT22;5638;50.860;4.698;2022-11-24T03:50:54;11.00;99.90
8850;DHT22;5638;50.860;4.698;2022-11-24T03:53:23;11.10;99.90
8850;DHT22;5638;50.860;4.698;2022-11-24T03:55:51;11.00;99.90
8850;DHT22;5638;50.860;4.698;2022-11-24T03:58:18;10.90;99.90
8850;DHT22;5638;50.860;4.698;2022-11-24T04:00:44;11.00;99.90
8850;DHT22;5638;50.860;4.698;2022-11-24T04:03:13;11.00;99.90
8850;DHT22;5638;50.860;4.698;2022-11-24T04:05:39;10.90;99.90
8850;DHT22;5638;50.860;4.698;2022-11-24T04:08:05;11.00;99.90
8850;DHT22;5638;50.860;4.698;2022-11-24T04:10:32;11.00;99.90
8850;DHT22;5638;50.860;4.698;2022-11-24T04:13:02;10.90;99.90
8850;DHT22;5638;50.860;4.698;2022-11-24T04:15:29;10.90;99.90
8850;DHT22;5638;50.860;4.698;2022-11-24T04:17:55;10.90;99.90
8850;DHT22;5638;50.860;4.698;2022-11-24T04:20:21;10.90;99.90
8850;DHT22;5638;50.860;4.698;2022-11-24T04:22:49;10.90;99.90
8850;DHT22;5638;50.860;4.698;2022-11-24T04:25:16;11.00;99.90
8850;DHT22;5638;50.860;4.698;2022-11-24T04:27:42;11.10;99.90
8850;DHT22;5638;50.860;4.698;2022-11-24T04:30:09;11.10;99.90
8850;DHT22;5638;50.860;4.698;2022-11-24T04:32:35;11.00;99.90
8850;DHT22;5638;50.860;4.698;2022-11-24T04:35:02;11.10;99.90
8850;DHT22;5638;50.860;4.698;2022-11-24T04:37:28;11.00;99.90
8850;DHT22;5638;50.860;4.698;2022-11-24T04:39:54;11.00;99.90
8850;DHT22;5638;50.860;4.698;2022-11-24T04:42:20;11.00;99.90
8850;DHT22;5638;50.860;4.698;2022-11-24T04:44:46;10.90;99.90
8850;DHT22;5638;50.860;4.698;2022-11-24T04:47:18;10.90;99.90
8850;DHT22;5638;50.860;4.698;2022-11-24T04:49:47;10.70;99.90
8850;DHT22;5638;50.860;4.698;2022-11-24T04:52:17;10.70;99.90
8850;DHT22;5638;50.860;4.698;2022-11-24T04:54:44;10.70;99.90
8850;DHT22;5638;50.860;4.698;2022-11-24T04:57:30;10.70;99.90
8850;DHT22;5638;50.860;4.698;2022-11-24T04:59:56;10.70;99.90
8850;DHT22;5638;50.860;4.698;2022-11-24T05:02:22;10.70;99.90
8850;DHT22;5638;50.860;4.698;2022-11-24T05:04:49;10.60;99.90
8850;DHT22;5638;50.860;4.698;2022-11-24T05:07:16;10.60;99.90
8850;DHT22;5638;50.860;4.698;2022-11-24T05:09:43;10.60;99.90
8850;DHT22;5638;50.860;4.698;2022-11-24T05:12:27;10.60;99.90
8850;DHT22;5638;50.860;4.698;2022-11-24T05:14:59;10.50;99.90
8850;DHT22;5638;50.860;4.698;2022-11-24T05:17:30;10.50;99.90
8850;DHT22;5638;50.860;4.698;2022-11-24T05:19:58;10.50;99.90
8850;DHT22;5638;50.860;4.698;2022-11-24T05:22:25;10.50;99.90
8850;DHT22;5638;50.860;4.698;2022-11-24T05:24:53;10.50;99.90
8850;DHT22;5638;50.860;4.698;2022-11-24T05:27:19;10.50;99.90
8850;DHT22;5638;50.860;4.698;2022-11-24T05:29:45;10.40;99.90
8850;DHT22;5638;50.860;4.698;2022-11-24T05:32:13;10.40;99.90
8850;DHT22;5638;50.860;4.698;2022-11-24T05:34:39;10.30;99.90
8850;DHT22;5638;50.860;4.698;2022-11-24T05:37:05;10.30;99.90
8850;DHT22;5638;50.860;4.698;2022-11-24T05:39:35;10.30;99.90
8850;DHT22;5638;50.860;4.698;2022-11-24T05:42:02;10.20;99.90
8850;DHT22;5638;50.860;4.698;2022-11-24T05:44:50;10.30;99.90
8850;DHT22;5638;50.860;4.698;2022-11-24T05:47:18;10.30;99.90
8850;DHT22;5638;50.860;4.698;2022-11-24T05:49:45;10.30;99.90
8850;DHT22;5638;50.860;4.698;2022-11-24T05:52:11;10.40;99.90
8850;DHT22;5638;50.860;4.698;2022-11-24T05:54:37;10.40;99.90
8850;DHT22;5638;50.860;4.698;2022-11-24T05:57:03;10.40;99.90
8850;DHT22;5638;50.860;4.698;2022-11-24T05:59:29;10.30;99.90
8850;DHT22;5638;50.860;4.698;2022-11-24T06:01:55;10.30;99.90
8850;DHT22;5638;50.860;4.698;2022-11-24T06:04:21;10.30;99.90
8850;DHT22;5638;50.860;4.698;2022-11-24T06:06:46;10.20;99.90
8850;DHT22;5638;50.860;4.698;2022-11-24T06:09:12;10.20;99.90
8850;DHT22;5638;50.860;4.698;2022-11-24T06:11:38;10.30;99.90
8850;DHT22;5638;50.860;4.698;2022-11-24T06:14:04;10.30;99.90
8850;DHT22;5638;50.860;4.698;2022-11-24T06:16:30;10.30;99.90
8850;DHT22;5638;50.860;4.698;2022-11-24T06:18:56;10.30;99.90
8850;DHT22;5638;50.860;4.698;2022-11-24T06:21:21;10.30;99.90
8850;DHT22;5638;50.860;4.698;2022-11-24T06:23:47;10.30;99.90
8850;DHT22;5638;50.860;4.698;2022-11-24T06:26:13;10.20;99.90
8850;DHT22;5638;50.860;4.698;2022-11-24T06:28:39;10.20;99.90
8850;DHT22;5638;50.860;4.698;2022-11-24T06:31:06;10.20;99.90
8850;DHT22;5638;50.860;4.698;2022-11-24T06:33:33;10.20;99.90
8850;DHT22;5638;50.860;4.698;2022-11-24T06:36:01;10.20;99.90
8850;DHT22;5638;50.860;4.698;2022-11-24T06:38:29;10.20;99.90
8850;DHT22;5638;50.860;4.698;2022-11-24T06:41:03;10.20;99.90
8850;DHT22;5638;50.860;4.698;2022-11-24T06:43:32;10.20;99.90
8850;DHT22;5638;50.860;4.698;2022-11-24T06:45:59;10.20;99.90
8850;DHT22;5638;50.860;4.698;2022-11-24T06:48:25;10.20;99.90
8850;DHT22;5638;50.860;4.698;2022-11-24T06:50:52;10.20;99.90
8850;DHT22;5638;50.860;4.698;2022-11-24T06:53:22;10.30;99.90
8850;DHT22;5638;50.860;4.698;2022-11-24T06:55:48;10.30;99.90
8850;DHT22;5638;50.860;4.698;2022-11-24T06:58:15;10.20;99.90
8850;DHT22;5638;50.860;4.698;2022-11-24T07:00:41;10.30;99.90
8850;DHT22;5638;50.860;4.698;2022-11-24T07:03:15;10.30;99.90
8850;DHT22;5638;50.860;4.698;2022-11-24T07:05:41;10.30;99.90
8850;DHT22;5638;50.860;4.698;2022-11-24T07:08:08;10.30;99.90
8850;DHT22;5638;50.860;4.698;2022-11-24T07:10:34;10.30;99.90
8850;DHT22;5638;50.860;4.698;2022-11-24T07:13:00;10.20;99.90
8850;DHT22;5638;50.860;4.698;2022-11-24T07:15:29;10.20;99.90
8850;DHT22;5638;50.860;4.698;2022-11-24T07:17:55;10.30;99.90
8850;DHT22;5638;50.860;4.698;2022-11-24T07:20:20;10.30;99.90
8850;DHT22;5638;50.860;4.698;2022-11-24T07:22:46;10.30;99.90
8850;DHT22;5638;50.860;4.698;2022-11-24T07:25:12;10.30;99.90
8850;DHT22;5638;50.860;4.698;2022-11-24T07:27:39;10.30;99.90
8850;DHT22;5638;50.860;4.698;2022-11-24T07:30:06;10.30;99.90
8850;DHT22;5638;50.860;4.698;2022-11-24T07:32:33;10.40;99.90
8850;DHT22;5638;50.860;4.698;2022-11-24T07:34:59;10.40;99.90
8850;DHT22;5638;50.860;4.698;2022-11-24T07:37:25;10.40;99.90
8850;DHT22;5638;50.860;4.698;2022-11-24T07:39:52;10.40;99.90
8850;DHT22;5638;50.860;4.698;2022-11-24T07:42:17;10.30;99.90
8850;DHT22;5638;50.860;4.698;2022-11-24T07:44:43;10.20;99.90
8850;DHT22;5638;50.860;4.698;2022-11-24T07:47:09;10.10;99.90
8850;DHT22;5638;50.860;4.698;2022-11-24T07:49:35;10.10;99.90
8850;DHT22;5638;50.860;4.698;2022-11-24T07:52:01;10.10;99.90
8850;DHT22;5638;50.860;4.698;2022-11-24T07:54:27;10.10;99.90
8850;DHT22;5638;50.860;4.698;2022-11-24T07:56:53;10.00;99.90
8850;DHT22;5638;50.860;4.698;2022-11-24T07:59:18;10.00;99.90
8850;DHT22;5638;50.860;4.698;2022-11-24T08:01:44;10.00;99.90
8850;DHT22;5638;50.860;4.698;2022-11-24T08:04:11;10.00;99.90
8850;DHT22;5638;50.860;4.698;2022-11-24T08:06:37;10.00;99.90
8850;DHT22;5638;50.860;4.698;2022-11-24T08:09:03;10.00;99.90
8850;DHT22;5638;50.860;4.698;2022-11-24T08:11:29;10.20;99.90
8850;DHT22;5638;50.860;4.698;2022-11-24T08:13:59;10.60;99.90
8850;DHT22;5638;50.860;4.698;2022-11-24T08:16:25;10.90;99.90
8850;DHT22;5638;50.860;4.698;2022-11-24T08:18:52;11.30;99.90
8850;DHT22;5638;50.860;4.698;2022-11-24T08:21:20;11.60;99.90
8850;DHT22;5638;50.860;4.698;2022-11-24T08:23:47;11.70;99.90
8850;DHT22;5638;50.860;4.698;2022-11-24T08:26:15;11.90;99.90
8850;DHT22;5638;50.860;4.698;2022-11-24T08:28:45;12.10;99.90
8850;DHT22;5638;50.860;4.698;2022-11-24T08:31:17;12.40;99.90
8850;DHT22;5638;50.860;4.698;2022-11-24T08:33:43;12.30;99.90
8850;DHT22;5638;50.860;4.698;2022-11-24T08:36:15;12.50;99.90
8850;DHT22;5638;50.860;4.698;2022-11-24T08:38:42;12.50;99.90
8850;DHT22;5638;50.860;4.698;2022-11-24T08:41:11;12.80;99.90
8850;DHT22;5638;50.860;4.698;2022-11-24T08:43:39;13.00;99.90
8850;DHT22;5638;50.860;4.698;2022-11-24T08:46:08;13.20;99.90
8850;DHT22;5638;50.860;4.698;2022-11-24T08:48:36;13.40;99.90
8850;DHT22;5638;50.860;4.698;2022-11-24T08:51:07;13.40;99.90
8850;DHT22;5638;50.860;4.698;2022-11-24T08:53:35;13.50;99.90
8850;DHT22;5638;50.860;4.698;2022-11-24T08:56:02;13.70;99.90
8850;DHT22;5638;50.860;4.698;2022-11-24T08:58:29;13.50;99.90
8850;DHT22;5638;50.860;4.698;2022-11-24T09:01:03;13.40;99.90
8850;DHT22;5638;50.860;4.698;2022-11-24T09:03:30;13.60;99.90
8850;DHT22;5638;50.860;4.698;2022-11-24T09:05:56;13.80;99.90
8850;DHT22;5638;50.860;4.698;2022-11-24T09:08:22;14.10;99.90
8850;DHT22;5638;50.860;4.698;2022-11-24T09:10:48;14.10;99.90
8850;DHT22;5638;50.860;4.698;2022-11-24T09:13:14;14.20;99.90
8850;DHT22;5638;50.860;4.698;2022-11-24T09:15:40;14.40;99.90
8850;DHT22;5638;50.860;4.698;2022-11-24T09:18:06;14.30;99.90
8850;DHT22;5638;50.860;4.698;2022-11-24T09:20:31;14.40;99.90
8850;DHT22;5638;50.860;4.698;2022-11-24T09:22:57;14.50;99.90
8850;DHT22;5638;50.860;4.698;2022-11-24T09:25:23;14.70;99.90
8850;DHT22;5638;50.860;4.698;2022-11-24T09:27:50;15.00;99.90
8850;DHT22;5638;50.860;4.698;2022-11-24T09:30:16;15.20;99.90
8850;DHT22;5638;50.860;4.698;2022-11-24T09:32:42;15.30;99.90
8850;DHT22;5638;50.860;4.698;2022-11-24T09:35:08;15.10;99.90
8850;DHT22;5638;50.860;4.698;2022-11-24T09:37:35;15.20;99.90
8850;DHT22;5638;50.860;4.698;2022-11-24T09:40:02;15.30;99.90
8850;DHT22;5638;50.860;4.698;2022-11-24T09:42:59;15.40;99.90
8850;DHT22;5638;50.860;4.698;2022-11-24T09:45:50;15.30;99.90
8850;DHT22;5638;50.860;4.698;2022-11-24T09:48:37;15.60;99.90
8850;DHT22;5638;50.860;4.698;2022-11-24T09:51:10;15.60;99.90
8850;DHT22;5638;50.860;4.698;2022-11-24T09:53:45;15.90;99.90
8850;DHT22;5638;50.860;4.698;2022-11-24T09:56:21;15.80;99.90
8850;DHT22;5638;50.860;4.698;2022-11-24T10:01:27;15.60;99.90
8850;DHT22;5638;50.860;4.698;2022-11-24T10:03:55;15.80;99.90
8850;DHT22;5638;50.860;4.698;2022-11-24T10:06:25;16.20;99.90
8850;DHT22;5638;50.860;4.698;2022-11-24T10:26:43;17.70;99.90
8850;DHT22;5638;50.860;4.698;2022-11-24T10:29:22;17.80;99.90
8850;DHT22;5638;50.860;4.698;2022-11-24T10:31:54;17.50;99.90
8850;DHT22;5638;50.860;4.698;2022-11-24T10:34:37;17.40;99.90
8850;DHT22;5638;50.860;4.698;2022-11-24T10:43:03;16.80;99.90
8850;DHT22;5638;50.860;4.698;2022-11-24T10:45:46;16.90;99.90
8850;DHT22;5638;50.860;4.698;2022-11-24T10:48:25;16.90;99.90
8850;DHT22;5638;50.860;4.698;2022-11-24T10:51:00;17.20;99.90
8850;DHT22;5638;50.860;4.698;2022-11-24T10:53:47;17.40;99.90
8850;DHT22;5638;50.860;4.698;2022-11-24T10:56:13;17.60;99.90
8850;DHT22;5638;50.860;4.698;2022-11-24T10:58:39;17.80;99.90
8850;DHT22;5638;50.860;4.698;2022-11-24T11:03:54;17.90;99.90
8850;DHT22;5638;50.860;4.698;2022-11-24T11:06:30;17.90;99.90
8850;DHT22;5638;50.860;4.698;2022-11-24T11:11:32;17.70;99.90
8850;DHT22;5638;50.860;4.698;2022-11-24T11:14:02;17.40;99.90
8850;DHT22;5638;50.860;4.698;2022-11-24T11:19:01;17.30;99.90
8850;DHT22;5638;50.860;4.698;2022-11-24T11:21:37;17.50;99.90
8850;DHT22;5638;50.860;4.698;2022-11-24T11:24:15;17.90;99.90
8850;DHT22;5638;50.860;4.698;2022-11-24T11:26:42;18.00;99.90
8850;DHT22;5638;50.860;4.698;2022-11-24T11:29:13;17.90;99.90
8850;DHT22;5638;50.860;4.698;2022-11-24T11:31:59;17.70;99.90
8850;DHT22;5638;50.860;4.698;2022-11-24T11:34:32;17.70;99.90
8850;DHT22;5638;50.860;4.698;2022-11-24T11:37:02;17.70;99.90
8850;DHT22;5638;50.860;4.698;2022-11-24T11:39:32;17.60;99.90
8850;DHT22;5638;50.860;4.698;2022-11-24T11:44:51;17.60;99.90
8850;DHT22;5638;50.860;4.698;2022-11-24T11:47:52;17.50;99.90
8850;DHT22;5638;50.860;4.698;2022-11-24T11:50:28;17.80;99.90
8850;DHT22;5638;50.860;4.698;2022-11-24T11:55:36;16.90;99.90
8850;DHT22;5638;50.860;4.698;2022-11-24T12:01:35;17.10;99.90
8850;DHT22;5638;50.860;4.698;2022-11-24T12:15:55;17.30;99.90
8850;DHT22;5638;50.860;4.698;2022-11-24T12:18:54;17.40;99.90
8850;DHT22;5638;50.860;4.698;2022-11-24T12:21:34;17.30;99.90
8850;DHT22;5638;50.860;4.698;2022-11-24T12:24:33;17.30;99.90
8850;DHT22;5638;50.860;4.698;2022-11-24T12:30:16;16.90;99.90
8850;DHT22;5638;50.860;4.698;2022-11-24T12:35:54;17.10;99.90
8850;DHT22;5638;50.860;4.698;2022-11-24T12:39:13;16.90;99.90
8850;DHT22;5638;50.860;4.698;2022-11-24T12:42:08;17.00;99.90
8850;DHT22;5638;50.860;4.698;2022-11-24T12:45:12;16.70;99.90
8850;DHT22;5638;50.860;4.698;2022-11-24T12:50:31;16.70;99.90
8850;DHT22;5638;50.860;4.698;2022-11-24T12:53:23;16.70;99.90
8850;DHT22;5638;50.860;4.698;2022-11-24T12:55:53;16.90;99.90
8850;DHT22;5638;50.860;4.698;2022-11-24T13:07:45;17.20;99.90
8850;DHT22;5638;50.860;4.698;2022-11-24T13:10:38;17.00;99.90
8850;DHT22;5638;50.860;4.698;2022-11-24T13:13:05;17.20;99.90
8850;DHT22;5638;50.860;4.698;2022-11-24T13:16:01;17.40;99.90
8850;DHT22;5638;50.860;4.698;2022-11-24T13:29:49;18.00;99.90
8850;DHT22;5638;50.860;4.698;2022-11-24T13:39:58;17.20;99.90
8850;DHT22;5638;50.860;4.698;2022-11-24T13:42:26;17.30;99.90
8850;DHT22;5638;50.860;4.698;2022-11-24T13:44:58;17.00;99.90
8850;DHT22;5638;50.860;4.698;2022-11-24T13:47:39;16.70;99.90
8850;DHT22;5638;50.860;4.698;2022-11-24T13:50:18;16.10;99.90
8850;DHT22;5638;50.860;4.698;2022-11-24T13:52:57;15.90;99.90
8850;DHT22;5638;50.860;4.698;2022-11-24T13:55:38;15.70;99.90
8850;DHT22;5638;50.860;4.698;2022-11-24T13:58:20;15.60;99.90
8850;DHT22;5638;50.860;4.698;2022-11-24T14:05:58;15.30;99.90
8850;DHT22;5638;50.860;4.698;2022-11-24T14:08:33;15.10;99.90
8850;DHT22;5638;50.860;4.698;2022-11-24T14:11:09;14.90;99.90
8850;DHT22;5638;50.860;4.698;2022-11-24T14:13:37;14.80;99.90
8850;DHT22;5638;50.860;4.698;2022-11-24T14:16:13;14.80;99.90
8850;DHT22;5638;50.860;4.698;2022-11-24T14:18:43;14.70;99.90
8850;DHT22;5638;50.860;4.698;2022-11-24T14:21:24;14.50;99.90
8850;DHT22;5638;50.860;4.698;2022-11-24T14:23:59;14.40;99.90
8850;DHT22;5638;50.860;4.698;2022-11-24T14:26:46;14.20;99.90
8850;DHT22;5638;50.860;4.698;2022-11-24T14:29:14;14.00;99.90
8850;DHT22;5638;50.860;4.698;2022-11-24T14:31:52;14.00;99.90
8850;DHT22;5638;50.860;4.698;2022-11-24T14:34:20;14.00;99.90
8850;DHT22;5638;50.860;4.698;2022-11-24T14:36:48;13.80;99.90
8850;DHT22;5638;50.860;4.698;2022-11-24T14:39:17;13.70;99.90
8850;DHT22;5638;50.860;4.698;2022-11-24T14:44:58;13.50;99.90
8850;DHT22;5638;50.860;4.698;2022-11-24T14:47:33;13.60;99.90
8850;DHT22;5638;50.860;4.698;2022-11-24T14:50:12;13.60;99.90
8850;DHT22;5638;50.860;4.698;2022-11-24T14:52:51;13.50;99.90
8850;DHT22;5638;50.860;4.698;2022-11-24T14:55:27;13.40;99.90
8850;DHT22;5638;50.860;4.698;2022-11-24T14:57:55;13.30;99.90
8850;DHT22;5638;50.860;4.698;2022-11-24T15:00:30;13.30;99.90
8850;DHT22;5638;50.860;4.698;2022-11-24T15:05:52;13.20;99.90
8850;DHT22;5638;50.860;4.698;2022-11-24T15:08:21;13.20;99.90
8850;DHT22;5638;50.860;4.698;2022-11-24T15:11:01;13.00;99.90
8850;DHT22;5638;50.860;4.698;2022-11-24T15:13:32;13.00;99.90
8850;DHT22;5638;50.860;4.698;2022-11-24T15:16:05;13.00;99.90
8850;DHT22;5638;50.860;4.698;2022-11-24T15:18:44;12.90;99.90
8850;DHT22;5638;50.860;4.698;2022-11-24T15:21:12;12.80;99.90
8850;DHT22;5638;50.860;4.698;2022-11-24T15:23:40;12.70;99.90
8850;DHT22;5638;50.860;4.698;2022-11-24T15:28:36;12.50;99.90
8850;DHT22;5638;50.860;4.698;2022-11-24T15:31:05;12.40;99.90
8850;DHT22;5638;50.860;4.698;2022-11-24T15:33:35;12.30;99.90
8850;DHT22;5638;50.860;4.698;2022-11-24T15:36:02;12.20;99.90
8850;DHT22;5638;50.860;4.698;2022-11-24T15:38:28;12.20;99.90
8850;DHT22;5638;50.860;4.698;2022-11-24T15:40:57;12.10;99.90
8850;DHT22;5638;50.860;4.698;2022-11-24T15:43:38;12.10;99.90
8850;DHT22;5638;50.860;4.698;2022-11-24T15:46:06;12.10;99.90
8850;DHT22;5638;50.860;4.698;2022-11-24T15:48:32;12.00;99.90
8850;DHT22;5638;50.860;4.698;2022-11-24T15:51:02;12.10;99.90
8850;DHT22;5638;50.860;4.698;2022-11-24T15:53:52;12.00;99.90
8850;DHT22;5638;50.860;4.698;2022-11-24T15:56:24;12.00;99.90
8850;DHT22;5638;50.860;4.698;2022-11-24T15:58:55;12.00;99.90
8850;DHT22;5638;50.860;4.698;2022-11-24T16:01:22;11.90;99.90
8850;DHT22;5638;50.860;4.698;2022-11-24T16:03:51;11.90;99.90
8850;DHT22;5638;50.860;4.698;2022-11-24T16:06:18;11.90;99.90
8850;DHT22;5638;50.860;4.698;2022-11-24T16:08:45;11.80;99.90
8850;DHT22;5638;50.860;4.698;2022-11-24T16:11:11;11.70;99.90
8850;DHT22;5638;50.860;4.698;2022-11-24T16:13:37;11.70;99.90
8850;DHT22;5638;50.860;4.698;2022-11-24T16:16:03;11.60;99.90
8850;DHT22;5638;50.860;4.698;2022-11-24T16:18:29;11.60;99.90
8850;DHT22;5638;50.860;4.698;2022-11-24T16:20:56;11.50;99.90
8850;DHT22;5638;50.860;4.698;2022-11-24T16:23:22;11.30;99.90
8850;DHT22;5638;50.860;4.698;2022-11-24T16:25:48;11.30;99.90
8850;DHT22;5638;50.860;4.698;2022-11-24T16:28:14;11.30;99.90
8850;DHT22;5638;50.860;4.698;2022-11-24T16:30:40;11.30;99.90
8850;DHT22;5638;50.860;4.698;2022-11-24T16:33:06;11.30;99.90
8850;DHT22;5638;50.860;4.698;2022-11-24T16:35:32;11.30;99.90
8850;DHT22;5638;50.860;4.698;2022-11-24T16:37:59;11.20;99.90
8850;DHT22;5638;50.860;4.698;2022-11-24T16:40:25;11.20;99.90
8850;DHT22;5638;50.860;4.698;2022-11-24T16:42:51;11.20;99.90
8850;DHT22;5638;50.860;4.698;2022-11-24T16:45:17;11.30;99.90
8850;DHT22;5638;50.860;4.698;2022-11-24T16:47:43;11.30;99.90
8850;DHT22;5638;50.860;4.698;2022-11-24T16:50:10;11.20;99.90
8850;DHT22;5638;50.860;4.698;2022-11-24T16:52:37;11.10;99.90
8850;DHT22;5638;50.860;4.698;2022-11-24T16:55:05;11.10;99.90
8850;DHT22;5638;50.860;4.698;2022-11-24T16:57:31;11.00;99.90
8850;DHT22;5638;50.860;4.698;2022-11-24T16:59:57;10.90;99.90
8850;DHT22;5638;50.860;4.698;2022-11-24T17:02:23;10.90;99.90
8850;DHT22;5638;50.860;4.698;2022-11-24T17:04:49;10.90;99.90
8850;DHT22;5638;50.860;4.698;2022-11-24T17:07:17;10.90;99.90
8850;DHT22;5638;50.860;4.698;2022-11-24T17:09:44;10.80;99.90
8850;DHT22;5638;50.860;4.698;2022-11-24T17:12:10;10.80;99.90
8850;DHT22;5638;50.860;4.698;2022-11-24T17:14:36;10.80;99.90
8850;DHT22;5638;50.860;4.698;2022-11-24T17:17:02;10.80;99.90
8850;DHT22;5638;50.860;4.698;2022-11-24T17:19:31;10.80;99.90
8850;DHT22;5638;50.860;4.698;2022-11-24T17:22:21;10.70;99.90
8850;DHT22;5638;50.860;4.698;2022-11-24T17:24:57;10.70;99.90
8850;DHT22;5638;50.860;4.698;2022-11-24T17:27:23;10.70;99.90
8850;DHT22;5638;50.860;4.698;2022-11-24T17:29:53;10.70;99.90
8850;DHT22;5638;50.860;4.698;2022-11-24T17:32:26;10.60;99.90
8850;DHT22;5638;50.860;4.698;2022-11-24T17:34:56;10.60;99.90
8850;DHT22;5638;50.860;4.698;2022-11-24T17:37:23;10.60;99.90
8850;DHT22;5638;50.860;4.698;2022-11-24T17:39:49;10.60;99.90
8850;DHT22;5638;50.860;4.698;2022-11-24T17:42:19;10.60;99.90
8850;DHT22;5638;50.860;4.698;2022-11-24T17:44:45;10.60;99.90
8850;DHT22;5638;50.860;4.698;2022-11-24T17:47:11;10.60;99.90
8850;DHT22;5638;50.860;4.698;2022-11-24T17:49:37;10.60;99.90
8850;DHT22;5638;50.860;4.698;2022-11-24T17:52:03;10.50;99.90
8850;DHT22;5638;50.860;4.698;2022-11-24T17:54:29;10.50;99.90
8850;DHT22;5638;50.860;4.698;2022-11-24T17:56:54;10.50;99.90
8850;DHT22;5638;50.860;4.698;2022-11-24T17:59:23;10.40;99.90
8850;DHT22;5638;50.860;4.698;2022-11-24T18:01:49;10.50;99.90
8850;DHT22;5638;50.860;4.698;2022-11-24T18:04:16;10.40;99.90
8850;DHT22;5638;50.860;4.698;2022-11-24T18:06:42;10.40;99.90
8850;DHT22;5638;50.860;4.698;2022-11-24T18:09:08;10.40;99.90